createdAt,value
2018-08-22T00:02:18.878Z,6.12
2018-08-22T00:04:49.517Z,5.12
2018-08-22T00:07:20.375Z,6.78
2018-08-22T00:09:51.022Z,6.37
2018-08-22T00:12:21.723Z,6.65
2018-08-22T00:14:52.366Z,6.10
2018-08-22T00:17:29.811Z,6.58
2018-08-22T00:20:00.482Z,7.85
2018-08-22T00:22:31.202Z,7.83
2018-08-22T00:25:02.038Z,6.12
2018-08-22T00:27:32.720Z,7.37
2018-08-22T00:30:03.627Z,7.58
2018-08-22T00:32:34.306Z,7.17
2018-08-22T00:35:05.029Z,7.25
2018-08-22T00:37:35.698Z,6.83
2018-08-22T00:40:06.350Z,6.42
2018-08-22T00:42:37.018Z,6.95
2018-08-22T00:45:07.671Z,6.53
2018-08-22T00:47:38.514Z,7.08
2018-08-22T00:50:09.162Z,6.20
2018-08-22T00:52:39.856Z,6.85
2018-08-22T00:55:10.547Z,6.45
2018-08-22T00:57:41.243Z,6.55
2018-08-22T01:00:12.080Z,6.40
2018-08-22T01:02:42.743Z,7.22
2018-08-22T01:05:13.411Z,9.13
2018-08-22T01:07:44.074Z,6.22
2018-08-22T01:10:14.738Z,8.75
2018-08-22T01:12:45.406Z,6.83
2018-08-22T01:15:16.403Z,7.05
2018-08-22T01:17:47.099Z,6.33
2018-08-22T01:20:18.118Z,7.62
2018-08-22T01:22:48.774Z,6.72
2018-08-22T01:25:19.450Z,6.15
2018-08-22T01:27:50.127Z,7.10
2018-08-22T01:30:20.794Z,5.90
2018-08-22T01:32:51.442Z,7.90
2018-08-22T01:35:22.131Z,5.95
2018-08-22T01:37:52.770Z,5.90
2018-08-22T01:40:23.427Z,6.35
2018-08-22T01:42:54.066Z,6.60
2018-08-22T01:45:24.727Z,6.62
2018-08-22T01:47:55.416Z,7.47
2018-08-22T01:50:26.063Z,6.92
2018-08-22T01:52:56.723Z,6.20
2018-08-22T01:55:27.414Z,6.70
2018-08-22T01:57:58.107Z,7.53
2018-08-22T02:00:28.750Z,6.33
2018-08-22T02:02:59.438Z,5.65
2018-08-22T02:05:30.091Z,7.00
2018-08-22T02:08:00.787Z,8.55
2018-08-22T02:10:31.468Z,6.80
2018-08-22T02:13:02.110Z,8.13
2018-08-22T02:15:32.786Z,10.08
2018-08-22T02:18:03.630Z,6.33
2018-08-22T02:20:34.319Z,7.12
2018-08-22T02:23:04.957Z,9.00
2018-08-22T02:25:35.630Z,7.62
2018-08-22T02:28:06.268Z,7.40
2018-08-22T02:30:36.938Z,6.40
2018-08-22T02:33:07.599Z,6.50
2018-08-22T02:35:38.271Z,6.50
2018-08-22T02:38:08.952Z,6.22
2018-08-22T02:40:39.618Z,7.37
2018-08-22T02:43:10.299Z,8.45
2018-08-22T02:45:40.930Z,9.03
2018-08-22T02:48:11.607Z,6.92
2018-08-22T02:50:42.267Z,8.75
2018-08-22T02:53:12.951Z,8.13
2018-08-22T02:55:43.610Z,6.10
2018-08-22T02:58:14.274Z,5.50
2018-08-22T03:00:44.906Z,6.70
2018-08-22T03:03:15.578Z,6.08
2018-08-22T03:05:46.229Z,6.10
2018-08-22T03:08:16.896Z,5.85
2018-08-22T03:10:47.558Z,5.80
2018-08-22T03:13:18.230Z,7.45
2018-08-22T03:15:48.878Z,6.65
2018-08-22T03:18:19.546Z,6.80
2018-08-22T03:20:50.210Z,6.05
2018-08-22T03:23:20.910Z,6.33
2018-08-22T03:25:51.639Z,6.83
2018-08-22T03:28:22.279Z,6.62
2018-08-22T03:30:52.955Z,6.70
2018-08-22T03:33:23.797Z,7.35
2018-08-22T03:35:54.470Z,6.40
2018-08-22T03:38:25.129Z,6.97
2018-08-22T03:40:55.824Z,6.20
2018-08-22T03:43:26.677Z,8.33
2018-08-22T03:45:57.346Z,7.05
2018-08-22T03:48:28.006Z,6.42
2018-08-22T03:50:58.678Z,7.00
2018-08-22T03:53:29.354Z,6.87
2018-08-22T03:56:00.023Z,5.75
2018-08-22T03:58:30.704Z,8.83
2018-08-22T04:01:01.347Z,7.92
2018-08-22T04:03:32.494Z,8.03
2018-08-22T04:06:03.139Z,7.47
2018-08-22T04:08:33.810Z,6.25
2018-08-22T04:11:04.446Z,7.60
2018-08-22T04:13:35.114Z,6.95
2018-08-22T04:16:05.791Z,7.10
2018-08-22T04:18:36.434Z,6.60
2018-08-22T04:21:07.142Z,6.37
2018-08-22T04:23:40.365Z,6.70
2018-08-22T04:26:11.039Z,6.50
2018-08-22T04:28:41.689Z,7.33
2018-08-22T04:31:12.371Z,7.90
2018-08-22T04:33:43.014Z,7.10
2018-08-22T04:36:13.682Z,9.20
2018-08-22T04:38:44.317Z,7.28
2018-08-22T04:41:14.974Z,6.62
2018-08-22T04:43:45.639Z,7.72
2018-08-22T04:46:16.294Z,6.83
2018-08-22T04:48:46.971Z,7.10
2018-08-22T04:51:17.622Z,6.58
2018-08-22T04:53:48.286Z,6.78
2018-08-22T04:56:18.986Z,8.25
2018-08-22T04:58:49.682Z,6.97
2018-08-22T05:01:20.518Z,8.25
2018-08-22T05:03:51.200Z,8.23
2018-08-22T05:06:21.906Z,6.78
2018-08-22T05:08:52.584Z,6.35
2018-08-22T05:11:23.230Z,6.58
2018-08-22T05:13:53.894Z,7.67
2018-08-22T05:16:24.567Z,7.67
2018-08-22T05:18:55.242Z,7.50
2018-08-22T05:21:25.894Z,8.53
2018-08-22T05:23:56.772Z,8.55
2018-08-22T05:26:27.439Z,7.47
2018-08-22T05:28:58.122Z,9.60
2018-08-22T05:31:28.790Z,8.43
2018-08-22T05:34:00.031Z,7.92
2018-08-22T05:36:30.726Z,7.92
2018-08-22T05:39:01.365Z,8.43
2018-08-22T05:41:32.028Z,8.38
2018-08-22T05:44:02.702Z,7.53
2018-08-22T05:46:33.382Z,7.97
2018-08-22T05:49:04.094Z,8.73
2018-08-22T05:51:34.959Z,7.62
2018-08-22T05:54:05.618Z,7.35
2018-08-22T05:56:36.314Z,8.40
2018-08-22T05:59:06.966Z,7.72
2018-08-22T06:01:37.635Z,8.53
2018-08-22T06:04:08.302Z,8.88
2018-08-22T06:06:38.995Z,9.00
2018-08-22T06:09:11.497Z,8.33
2018-08-22T06:11:44.121Z,11.03
2018-08-22T06:14:14.788Z,6.87
2018-08-22T06:16:45.434Z,8.20
2018-08-22T06:19:16.115Z,7.08
2018-08-22T06:21:46.766Z,7.72
2018-08-22T06:24:24.194Z,7.50
2018-08-22T06:26:54.839Z,7.92
2018-08-22T06:29:25.526Z,8.10
2018-08-22T06:31:56.174Z,9.75
2018-08-22T06:34:26.873Z,11.85
2018-08-22T06:36:57.514Z,7.33
2018-08-22T06:39:28.203Z,7.60
2018-08-22T06:41:59.067Z,7.35
2018-08-22T06:44:29.703Z,6.50
2018-08-22T06:47:00.379Z,9.55
2018-08-22T06:49:31.051Z,7.17
2018-08-22T06:52:01.737Z,9.25
2018-08-22T06:54:32.448Z,7.45
2018-08-22T06:57:03.531Z,8.13
2018-08-22T06:59:34.363Z,8.38
2018-08-22T07:02:05.067Z,7.58
2018-08-22T07:04:35.719Z,7.28
2018-08-22T07:07:06.381Z,8.95
2018-08-22T07:09:37.046Z,8.63
2018-08-22T07:12:07.714Z,8.98
2018-08-22T07:14:38.390Z,8.03
2018-08-22T07:17:09.028Z,7.25
2018-08-22T07:19:39.704Z,7.67
2018-08-22T07:22:10.342Z,6.67
2018-08-22T07:24:41.030Z,6.70
2018-08-22T07:27:11.694Z,5.92
2018-08-22T07:29:42.362Z,7.03
2018-08-22T07:32:13.013Z,5.60
2018-08-22T07:34:43.666Z,7.35
2018-08-22T07:37:14.481Z,7.37
2018-08-22T07:39:45.078Z,6.83
2018-08-22T07:42:15.727Z,6.22
2018-08-22T07:44:52.742Z,5.33
2018-08-22T07:47:23.107Z,4.93
2018-08-22T07:49:53.491Z,8.10
2018-08-22T07:52:23.838Z,7.53
2018-08-22T07:54:54.514Z,5.22
2018-08-22T07:57:24.914Z,4.80
2018-08-22T07:59:55.302Z,5.07
2018-08-22T08:02:25.665Z,5.93
2018-08-22T08:04:56.042Z,6.17
2018-08-22T08:07:26.434Z,5.87
2018-08-22T08:09:56.851Z,8.43
2018-08-22T08:12:32.538Z,7.80
2018-08-22T08:15:03.915Z,7.17
2018-08-22T08:17:34.528Z,5.63
2018-08-22T08:20:05.491Z,7.03
2018-08-22T08:22:35.867Z,5.10
2018-08-22T08:25:06.347Z,5.50
2018-08-22T08:27:36.726Z,6.43
2018-08-22T08:30:07.269Z,5.53
2018-08-22T08:32:37.838Z,4.93
2018-08-22T08:35:08.233Z,5.13
2018-08-22T08:37:38.821Z,5.43
2018-08-22T08:40:09.210Z,5.80
2018-08-22T08:42:39.578Z,7.40
2018-08-22T08:45:11.083Z,6.20
2018-08-22T08:47:41.450Z,5.77
2018-08-22T08:50:11.857Z,10.67
2018-08-22T08:52:42.425Z,6.13
2018-08-22T08:55:12.996Z,6.80
2018-08-22T08:57:43.597Z,6.40
2018-08-22T09:00:14.159Z,5.80
2018-08-22T09:02:44.518Z,8.10
2018-08-22T09:05:14.895Z,6.13
2018-08-22T09:07:45.282Z,8.60
2018-08-22T09:10:15.665Z,6.77
2018-08-22T09:12:46.040Z,7.27
2018-08-22T09:15:16.447Z,9.50
2018-08-22T09:17:46.808Z,7.10
2018-08-22T09:20:17.387Z,5.67
2018-08-22T09:22:47.773Z,9.10
2018-08-22T09:25:18.151Z,8.17
2018-08-22T09:27:48.536Z,7.93
2018-08-22T09:30:18.913Z,7.20
2018-08-22T09:32:49.502Z,6.63
2018-08-22T09:35:20.049Z,7.60
2018-08-22T09:37:50.666Z,7.17
2018-08-22T09:40:21.040Z,5.00
2018-08-22T09:42:51.619Z,7.97
2018-08-22T09:45:21.999Z,10.27
2018-08-22T09:47:52.387Z,5.93
2018-08-22T09:50:22.752Z,6.33
2018-08-22T09:52:53.150Z,10.60
2018-08-22T09:55:23.592Z,6.37
2018-08-22T09:57:53.968Z,7.13
2018-08-22T10:00:29.507Z,10.50
2018-08-22T10:02:59.862Z,8.23
2018-08-22T10:05:30.242Z,7.83
2018-08-22T10:08:00.619Z,5.73
2018-08-22T10:10:31.027Z,5.60
2018-08-22T10:13:01.373Z,7.03
2018-08-22T10:15:31.754Z,7.13
2018-08-22T10:18:02.239Z,10.27
2018-08-22T10:20:32.621Z,6.30
2018-08-22T10:23:02.990Z,5.77
2018-08-22T10:25:33.398Z,7.27
2018-08-22T10:28:03.774Z,9.90
2018-08-22T10:30:34.178Z,7.70
2018-08-22T10:33:04.737Z,6.60
2018-08-22T10:35:35.202Z,8.53
2018-08-22T10:38:05.606Z,7.10
2018-08-22T10:40:35.963Z,6.23
2018-08-22T10:43:06.350Z,9.40
2018-08-22T10:45:36.712Z,6.47
2018-08-22T10:48:07.244Z,7.07
2018-08-22T10:50:37.812Z,5.53
2018-08-22T10:53:08.911Z,6.20
2018-08-22T10:55:39.295Z,10.07
2018-08-22T10:58:09.686Z,6.70
2018-08-22T11:00:40.088Z,7.23
2018-08-22T11:03:10.471Z,8.67
2018-08-22T11:05:40.847Z,8.37
2018-08-22T11:08:11.234Z,10.33
2018-08-22T11:10:41.635Z,9.00
2018-08-22T11:13:12.021Z,7.10
2018-08-22T11:15:42.503Z,9.20
2018-08-22T11:18:12.979Z,8.37
2018-08-22T11:20:47.713Z,4.93
2018-08-22T11:23:30.414Z,6.93
2018-08-22T11:26:12.819Z,6.60
2018-08-22T11:28:54.634Z,7.73
2018-08-22T11:31:36.362Z,10.17
2018-08-22T11:34:18.227Z,5.43
2018-08-22T11:37:01.431Z,6.43
2018-08-22T11:39:32.038Z,10.73
2018-08-22T11:42:03.326Z,7.43
2018-08-22T11:44:33.690Z,7.60
2018-08-22T11:47:04.098Z,8.77
2018-08-22T11:49:34.487Z,7.20
2018-08-22T11:52:05.206Z,7.90
2018-08-22T11:54:35.602Z,8.20
2018-08-22T11:57:05.967Z,5.93
2018-08-22T11:59:36.383Z,6.57
2018-08-22T12:02:06.783Z,8.10
2018-08-22T12:04:37.194Z,6.10
2018-08-22T12:07:07.744Z,8.43
2018-08-22T12:09:38.209Z,6.07
2018-08-22T12:12:08.590Z,8.10
2018-08-22T12:14:38.972Z,8.00
2018-08-22T12:17:09.359Z,7.30
2018-08-22T12:19:39.946Z,7.93
2018-08-22T12:22:10.307Z,9.67
2018-08-22T12:24:40.843Z,10.40
2018-08-22T12:27:12.940Z,6.60
2018-08-22T12:29:43.334Z,7.23
2018-08-22T12:32:13.797Z,6.30
2018-08-22T12:34:44.192Z,6.43
2018-08-22T12:37:14.865Z,6.20
2018-08-22T12:39:45.568Z,7.27
2018-08-22T12:42:16.187Z,7.10
2018-08-22T12:44:46.639Z,8.17
2018-08-22T12:47:17.119Z,7.07
2018-08-22T12:49:47.615Z,8.47
2018-08-22T12:52:18.099Z,11.27
2018-08-22T12:54:48.531Z,8.90
2018-08-22T12:57:19.020Z,7.60
2018-08-22T12:59:49.590Z,9.97
2018-08-22T13:02:19.951Z,9.13
2018-08-22T13:04:50.460Z,8.47
2018-08-22T13:07:20.822Z,9.40
2018-08-22T13:09:51.256Z,6.73
2018-08-22T13:12:21.866Z,10.33
2018-08-22T13:14:52.242Z,7.40
2018-08-22T13:17:22.624Z,6.80
2018-08-22T13:19:52.974Z,7.83
2018-08-22T13:22:23.534Z,7.90
2018-08-22T13:24:53.903Z,7.63
2018-08-22T13:27:24.313Z,6.77
2018-08-22T13:29:54.666Z,6.97
2018-08-22T13:32:25.074Z,11.63
2018-08-22T13:34:55.640Z,10.50
2018-08-22T13:37:26.232Z,7.93
2018-08-22T13:39:56.606Z,7.33
2018-08-22T13:42:26.951Z,7.47
2018-08-22T13:44:57.353Z,8.47
2018-08-22T13:47:27.770Z,6.87
2018-08-22T13:49:59.590Z,7.40
2018-08-22T13:52:29.976Z,11.43
2018-08-22T13:55:00.391Z,10.13
2018-08-22T13:57:30.812Z,11.33
2018-08-22T14:00:01.235Z,8.40
2018-08-22T14:02:32.228Z,8.37
2018-08-22T14:05:02.591Z,8.93
2018-08-22T14:07:32.959Z,7.00
2018-08-22T14:10:03.501Z,8.73
2018-08-22T14:12:33.989Z,10.17
2018-08-22T14:15:05.271Z,8.67
2018-08-22T14:17:35.674Z,12.33
2018-08-22T14:20:06.103Z,5.77
2018-08-22T14:22:38.066Z,7.03
2018-08-22T14:25:08.435Z,7.70
2018-08-22T14:27:39.551Z,5.60
2018-08-22T14:30:10.272Z,8.53
2018-08-22T14:32:40.662Z,6.37
2018-08-22T14:35:11.642Z,5.77
2018-08-22T14:37:43.191Z,8.60
2018-08-22T14:40:14.048Z,9.77
2018-08-22T14:42:44.406Z,7.50
2018-08-22T14:45:14.783Z,8.23
2018-08-22T14:47:45.166Z,7.27
2018-08-22T14:50:15.558Z,6.50
2018-08-22T14:52:45.946Z,7.70
2018-08-22T14:55:16.463Z,8.37
2018-08-22T14:57:46.885Z,7.10
2018-08-22T15:00:17.262Z,7.30
2018-08-22T15:02:47.797Z,5.67
2018-08-22T15:05:18.625Z,6.73
2018-08-22T15:07:49.015Z,8.07
2018-08-22T15:10:19.556Z,9.20
2018-08-22T15:12:50.220Z,7.13
2018-08-22T15:15:20.707Z,7.40
2018-08-22T15:17:51.098Z,7.17
2018-08-22T15:20:21.450Z,9.43
2018-08-22T15:22:51.829Z,8.53
2018-08-22T15:25:22.186Z,8.23
2018-08-22T15:27:52.571Z,8.37
2018-08-22T15:30:22.930Z,9.40
2018-08-22T15:32:53.310Z,7.50
2018-08-22T15:35:24.190Z,5.60
2018-08-22T15:37:54.575Z,7.03
2018-08-22T15:40:24.946Z,9.87
2018-08-22T15:42:55.387Z,7.67
2018-08-22T15:45:25.742Z,8.93
2018-08-22T15:47:56.101Z,6.73
2018-08-22T15:50:26.483Z,9.00
2018-08-22T15:52:56.876Z,10.30
2018-08-22T15:55:27.458Z,7.67
2018-08-22T15:58:00.991Z,9.87
2018-08-22T16:00:43.120Z,10.07
2018-08-22T16:03:13.507Z,8.30
2018-08-22T16:05:44.786Z,14.67
2018-08-22T16:08:18.166Z,8.67
2018-08-22T16:10:48.751Z,11.07
2018-08-22T16:13:24.522Z,9.93
2018-08-22T16:15:56.054Z,9.87
2018-08-22T16:18:26.471Z,7.93
2018-08-22T16:20:58.951Z,8.53
2018-08-22T16:23:31.710Z,9.63
2018-08-22T16:26:03.060Z,11.13
2018-08-22T16:28:45.594Z,9.33
2018-08-22T16:31:16.068Z,8.83
2018-08-22T16:33:46.586Z,10.83
2018-08-22T16:36:25.642Z,13.10
2018-08-22T16:38:56.216Z,11.67
2018-08-22T16:41:26.609Z,9.87
2018-08-22T16:43:56.962Z,10.07
2018-08-22T16:46:27.350Z,12.23
2018-08-22T16:48:57.718Z,11.40
2018-08-22T16:51:28.124Z,10.03
2018-08-22T16:54:03.858Z,10.40
2018-08-22T16:56:34.914Z,11.47
2018-08-22T16:59:08.491Z,11.70
2018-08-22T17:01:40.617Z,10.13
2018-08-22T17:04:13.188Z,11.43
2018-08-22T17:06:43.731Z,19.23
2018-08-22T17:09:14.123Z,11.23
2018-08-22T17:11:44.514Z,12.50
2018-08-22T17:14:14.878Z,12.43
2018-08-22T17:16:45.274Z,12.50
2018-08-22T17:19:15.638Z,11.97
2018-08-22T17:21:46.032Z,12.13
2018-08-22T17:24:16.391Z,12.57
2018-08-22T17:26:46.778Z,13.23
2018-08-22T17:29:17.860Z,12.87
2018-08-22T17:31:52.475Z,13.97
2018-08-22T17:34:22.839Z,11.73
2018-08-22T17:37:05.099Z,10.53
2018-08-22T17:39:35.496Z,17.23
2018-08-22T17:42:05.926Z,10.83
2018-08-22T17:44:36.283Z,12.70
2018-08-22T17:47:06.878Z,13.80
2018-08-22T17:49:37.293Z,15.07
2018-08-22T17:52:11.902Z,15.37
2018-08-22T17:54:42.270Z,10.17
2018-08-22T17:57:16.209Z,10.87
2018-08-22T17:59:46.646Z,13.57
2018-08-22T18:02:17.198Z,9.53
2018-08-22T18:04:59.818Z,10.43
2018-08-22T18:07:30.399Z,9.57
2018-08-22T18:10:02.725Z,11.93
2018-08-22T18:12:34.248Z,10.23
2018-08-22T18:15:05.607Z,11.50
2018-08-22T18:17:37.078Z,9.07
2018-08-22T18:20:07.574Z,8.93
2018-08-22T18:22:39.206Z,9.17
2018-08-22T18:25:09.654Z,10.93
2018-08-22T18:27:40.050Z,9.00
2018-08-22T18:30:12.830Z,9.30
2018-08-22T18:32:53.177Z,8.47
2018-08-22T18:35:26.689Z,8.33
2018-08-22T18:37:59.595Z,10.57
2018-08-22T18:40:34.334Z,8.20
2018-08-22T18:43:08.194Z,9.93
2018-08-22T18:45:50.500Z,9.30
2018-08-22T18:48:22.774Z,9.73
2018-08-22T18:50:55.296Z,9.17
2018-08-22T18:53:27.305Z,12.60
2018-08-22T18:56:10.670Z,9.70
2018-08-22T18:58:41.351Z,9.43
2018-08-22T19:01:11.806Z,9.80
2018-08-22T19:03:42.186Z,8.40
2018-08-22T19:06:12.651Z,9.13
2018-08-22T19:08:43.071Z,7.97
2018-08-22T19:11:13.465Z,9.30
2018-08-22T19:13:44.042Z,8.90
2018-08-22T19:16:14.398Z,9.13
2018-08-22T19:18:44.826Z,11.80
2018-08-22T19:21:15.196Z,9.13
2018-08-22T19:23:49.855Z,8.67
2018-08-22T19:26:20.231Z,8.83
2018-08-22T19:28:58.599Z,7.93
2018-08-22T19:31:28.958Z,9.37
2018-08-22T19:33:59.368Z,8.20
2018-08-22T19:36:29.947Z,8.80
2018-08-22T19:39:00.461Z,9.00
2018-08-22T19:41:32.957Z,10.50
2018-08-22T19:44:04.647Z,8.47
2018-08-22T19:46:36.792Z,7.90
2018-08-22T19:49:07.294Z,8.23
2018-08-22T19:51:37.782Z,8.60
2018-08-22T19:54:08.758Z,9.43
2018-08-22T19:56:39.174Z,8.53
2018-08-22T19:59:09.574Z,8.73
2018-08-22T20:01:39.977Z,10.07
2018-08-22T20:04:10.446Z,8.60
2018-08-22T20:06:47.259Z,8.30
2018-08-22T20:09:17.615Z,8.70
2018-08-22T20:11:48.002Z,9.30
2018-08-22T20:14:18.354Z,8.10
2018-08-22T20:16:48.748Z,8.33
2018-08-22T20:19:19.507Z,9.27
2018-08-22T20:21:49.914Z,8.23
2018-08-22T20:24:20.519Z,11.57
2018-08-22T20:27:03.383Z,7.50
2018-08-22T20:29:33.790Z,9.13
2018-08-22T20:32:04.275Z,11.07
2018-08-22T20:34:34.682Z,8.20
2018-08-22T20:37:05.059Z,8.10
2018-08-22T20:39:35.469Z,7.90
2018-08-22T20:42:09.934Z,8.20
2018-08-22T20:44:40.787Z,10.33
2018-08-22T20:47:11.159Z,7.43
2018-08-22T20:49:41.547Z,7.80
2018-08-22T20:52:11.899Z,7.67
2018-08-22T20:54:42.298Z,9.47
2018-08-22T20:57:12.680Z,9.67
2018-08-22T20:59:43.116Z,8.37
2018-08-22T21:02:13.603Z,7.93
2018-08-22T21:04:44.174Z,8.00
2018-08-22T21:07:19.207Z,8.43
2018-08-22T21:09:49.697Z,8.33
2018-08-22T21:12:20.322Z,9.70
2018-08-22T21:14:50.789Z,11.83
2018-08-22T21:17:21.719Z,8.43
2018-08-22T21:19:52.885Z,12.20
2018-08-22T21:22:28.243Z,9.20
2018-08-22T21:25:02.096Z,11.20
2018-08-22T21:27:38.633Z,9.57
2018-08-22T21:30:16.424Z,14.47
2018-08-22T21:32:51.819Z,10.17
2018-08-22T21:35:27.545Z,10.33
2018-08-22T21:38:06.311Z,11.60
2018-08-22T21:40:40.273Z,8.73
2018-08-22T21:43:15.486Z,16.50
2018-08-22T21:45:51.148Z,9.37
2018-08-22T21:48:27.592Z,11.77
2018-08-22T21:51:04.912Z,9.80
2018-08-22T21:53:37.603Z,9.77
2018-08-22T21:56:10.581Z,9.83
2018-08-22T21:58:43.465Z,9.67
2018-08-22T22:01:15.649Z,9.83
2018-08-22T22:03:48.530Z,10.07
2018-08-22T22:06:21.139Z,11.80
2018-08-22T22:08:53.935Z,12.77
2018-08-22T22:11:26.126Z,13.23
2018-08-22T22:14:20.809Z,10.33
2018-08-22T22:16:53.175Z,10.00
2018-08-22T22:19:32.747Z,9.20
2018-08-22T22:22:05.478Z,10.60
2018-08-22T22:24:53.151Z,13.10
2018-08-22T22:27:25.424Z,11.33
2018-08-22T22:30:05.236Z,11.83
2018-08-22T22:32:37.476Z,10.50
2018-08-22T22:35:09.197Z,10.73
2018-08-22T22:37:40.292Z,12.25
2018-08-22T22:40:11.304Z,10.13
2018-08-22T22:42:42.134Z,11.03
2018-08-22T22:45:12.863Z,12.80
2018-08-22T22:47:44.291Z,9.63
2018-08-22T22:50:14.680Z,10.20
2018-08-22T22:52:45.910Z,11.53
2018-08-22T22:55:16.314Z,9.97
2018-08-22T22:57:46.991Z,12.03
2018-08-22T23:00:18.402Z,10.87
2018-08-22T23:02:54.286Z,9.40
2018-08-22T23:05:29.236Z,11.90
2018-08-22T23:08:01.303Z,10.87
2018-08-22T23:10:31.714Z,11.53
2018-08-22T23:13:02.079Z,14.70
2018-08-22T23:15:32.765Z,12.10
2018-08-22T23:18:03.425Z,11.53
2018-08-22T23:20:39.408Z,12.93
2018-08-22T23:23:26.643Z,14.83
2018-08-22T23:26:30.294Z,12.00
2018-08-22T23:29:00.674Z,12.80
2018-08-22T23:31:31.383Z,11.95
2018-08-22T23:34:01.772Z,12.77
2018-08-22T23:36:32.179Z,13.97
2018-08-22T23:39:02.580Z,13.80
2018-08-22T23:41:33.015Z,13.87
2018-08-22T23:44:03.426Z,16.10
2018-08-22T23:46:33.836Z,14.00
2018-08-22T23:49:04.550Z,13.77
2018-08-22T23:51:34.939Z,13.73
2018-08-22T23:54:05.319Z,13.13
2018-08-22T23:56:36.015Z,14.18
2018-08-22T23:59:06.743Z,14.98
